sensor_id;sensor_type;location;lat;lon;timestamp;P1;durP1;ratioP1;P2;durP2;ratioP2
16075;SDS011;8142;48.242;11.644;2023-06-14T00:00:42;4.97;;;3.40;;
16075;SDS011;8142;48.242;11.644;2023-06-14T00:03:09;5.40;;;3.40;;
16075;SDS011;8142;48.242;11.644;2023-06-14T00:05:39;3.83;;;3.47;;
16075;SDS011;8142;48.242;11.644;2023-06-14T00:08:11;5.10;;;3.67;;
16075;SDS011;8142;48.242;11.644;2023-06-14T00:10:37;5.70;;;3.40;;
16075;SDS011;8142;48.242;11.644;2023-06-14T00:13:04;5.03;;;3.60;;
16075;SDS011;8142;48.242;11.644;2023-06-14T00:15:33;4.67;;;3.50;;
16075;SDS011;8142;48.242;11.644;2023-06-14T00:17:59;5.80;;;3.30;;
16075;SDS011;8142;48.242;11.644;2023-06-14T00:20:29;4.60;;;3.67;;
16075;SDS011;8142;48.242;11.644;2023-06-14T00:22:58;4.37;;;3.60;;
16075;SDS011;8142;48.242;11.644;2023-06-14T00:25:27;5.63;;;3.57;;
16075;SDS011;8142;48.242;11.644;2023-06-14T00:27:54;5.87;;;3.90;;
16075;SDS011;8142;48.242;11.644;2023-06-14T00:30:20;5.23;;;3.67;;
16075;SDS011;8142;48.242;11.644;2023-06-14T00:32:46;5.93;;;3.90;;
16075;SDS011;8142;48.242;11.644;2023-06-14T00:35:13;5.27;;;3.93;;
16075;SDS011;8142;48.242;11.644;2023-06-14T00:37:39;5.93;;;3.47;;
16075;SDS011;8142;48.242;11.644;2023-06-14T00:40:05;6.50;;;3.53;;
16075;SDS011;8142;48.242;11.644;2023-06-14T00:42:32;3.97;;;3.57;;
16075;SDS011;8142;48.242;11.644;2023-06-14T00:44:59;4.93;;;3.50;;
16075;SDS011;8142;48.242;11.644;2023-06-14T00:47:25;5.37;;;3.67;;
16075;SDS011;8142;48.242;11.644;2023-06-14T00:49:53;5.23;;;3.73;;
16075;SDS011;8142;48.242;11.644;2023-06-14T00:52:20;5.10;;;3.83;;
16075;SDS011;8142;48.242;11.644;2023-06-14T00:54:49;5.83;;;3.77;;
16075;SDS011;8142;48.242;11.644;2023-06-14T00:57:15;4.87;;;3.73;;
16075;SDS011;8142;48.242;11.644;2023-06-14T00:59:43;4.87;;;3.53;;
16075;SDS011;8142;48.242;11.644;2023-06-14T01:02:11;5.60;;;3.47;;
16075;SDS011;8142;48.242;11.644;2023-06-14T01:04:40;5.50;;;3.63;;
16075;SDS011;8142;48.242;11.644;2023-06-14T01:07:20;4.00;;;3.60;;
16075;SDS011;8142;48.242;11.644;2023-06-14T01:15:24;4.93;;;3.57;;
16075;SDS011;8142;48.242;11.644;2023-06-14T01:17:52;4.80;;;3.60;;
16075;SDS011;8142;48.242;11.644;2023-06-14T01:20:19;4.20;;;3.50;;
16075;SDS011;8142;48.242;11.644;2023-06-14T01:22:52;4.73;;;3.70;;
16075;SDS011;8142;48.242;11.644;2023-06-14T01:25:19;4.93;;;4.07;;
16075;SDS011;8142;48.242;11.644;2023-06-14T01:27:52;7.80;;;3.90;;
16075;SDS011;8142;48.242;11.644;2023-06-14T01:30:26;5.50;;;4.03;;
16075;SDS011;8142;48.242;11.644;2023-06-14T01:32:54;6.40;;;4.13;;
16075;SDS011;8142;48.242;11.644;2023-06-14T01:35:22;8.33;;;4.00;;
16075;SDS011;8142;48.242;11.644;2023-06-14T01:37:48;4.83;;;3.83;;
16075;SDS011;8142;48.242;11.644;2023-06-14T01:40:15;5.07;;;4.10;;
16075;SDS011;8142;48.242;11.644;2023-06-14T01:42:41;6.97;;;4.50;;
16075;SDS011;8142;48.242;11.644;2023-06-14T01:45:09;7.13;;;4.30;;
16075;SDS011;8142;48.242;11.644;2023-06-14T01:47:36;6.17;;;4.00;;
16075;SDS011;8142;48.242;11.644;2023-06-14T01:50:03;6.63;;;4.10;;
16075;SDS011;8142;48.242;11.644;2023-06-14T01:52:29;7.60;;;3.93;;
16075;SDS011;8142;48.242;11.644;2023-06-14T01:54:55;6.40;;;4.20;;
16075;SDS011;8142;48.242;11.644;2023-06-14T01:57:21;7.73;;;4.40;;
16075;SDS011;8142;48.242;11.644;2023-06-14T01:59:49;5.17;;;3.80;;
16075;SDS011;8142;48.242;11.644;2023-06-14T02:02:16;6.53;;;4.17;;
16075;SDS011;8142;48.242;11.644;2023-06-14T02:04:42;6.27;;;3.90;;
16075;SDS011;8142;48.242;11.644;2023-06-14T02:07:08;5.70;;;3.80;;
16075;SDS011;8142;48.242;11.644;2023-06-14T02:09:34;4.70;;;3.80;;
16075;SDS011;8142;48.242;11.644;2023-06-14T02:12:03;6.67;;;3.97;;
16075;SDS011;8142;48.242;11.644;2023-06-14T02:14:29;8.37;;;4.17;;
16075;SDS011;8142;48.242;11.644;2023-06-14T02:16:54;5.87;;;4.23;;
16075;SDS011;8142;48.242;11.644;2023-06-14T02:19:20;7.83;;;4.37;;
16075;SDS011;8142;48.242;11.644;2023-06-14T02:21:46;6.20;;;4.40;;
16075;SDS011;8142;48.242;11.644;2023-06-14T02:24:12;6.80;;;4.23;;
16075;SDS011;8142;48.242;11.644;2023-06-14T02:26:38;5.80;;;4.10;;
16075;SDS011;8142;48.242;11.644;2023-06-14T02:29:05;6.03;;;4.50;;
16075;SDS011;8142;48.242;11.644;2023-06-14T02:31:31;6.83;;;4.70;;
16075;SDS011;8142;48.242;11.644;2023-06-14T02:33:57;5.13;;;4.10;;
16075;SDS011;8142;48.242;11.644;2023-06-14T02:36:23;6.67;;;4.23;;
16075;SDS011;8142;48.242;11.644;2023-06-14T02:38:50;5.57;;;4.20;;
16075;SDS011;8142;48.242;11.644;2023-06-14T02:41:15;5.37;;;4.00;;
16075;SDS011;8142;48.242;11.644;2023-06-14T02:43:41;5.57;;;3.87;;
16075;SDS011;8142;48.242;11.644;2023-06-14T02:46:08;5.97;;;3.87;;
16075;SDS011;8142;48.242;11.644;2023-06-14T02:48:34;7.47;;;4.10;;
16075;SDS011;8142;48.242;11.644;2023-06-14T02:51:00;5.57;;;4.03;;
16075;SDS011;8142;48.242;11.644;2023-06-14T02:53:26;8.07;;;4.03;;
16075;SDS011;8142;48.242;11.644;2023-06-14T02:55:52;6.40;;;4.33;;
16075;SDS011;8142;48.242;11.644;2023-06-14T02:58:20;5.27;;;4.20;;
16075;SDS011;8142;48.242;11.644;2023-06-14T03:00:46;7.07;;;4.57;;
16075;SDS011;8142;48.242;11.644;2023-06-14T03:03:12;7.17;;;4.53;;
16075;SDS011;8142;48.242;11.644;2023-06-14T03:05:44;7.47;;;4.30;;
16075;SDS011;8142;48.242;11.644;2023-06-14T03:08:13;7.10;;;3.97;;
16075;SDS011;8142;48.242;11.644;2023-06-14T03:10:45;4.47;;;3.90;;
16075;SDS011;8142;48.242;11.644;2023-06-14T03:13:12;6.43;;;4.00;;
16075;SDS011;8142;48.242;11.644;2023-06-14T03:15:38;6.57;;;4.10;;
16075;SDS011;8142;48.242;11.644;2023-06-14T03:18:09;6.53;;;3.90;;
16075;SDS011;8142;48.242;11.644;2023-06-14T03:20:35;6.47;;;4.13;;
16075;SDS011;8142;48.242;11.644;2023-06-14T03:23:01;4.37;;;3.90;;
16075;SDS011;8142;48.242;11.644;2023-06-14T03:25:28;5.67;;;4.07;;
16075;SDS011;8142;48.242;11.644;2023-06-14T03:27:55;5.87;;;4.40;;
16075;SDS011;8142;48.242;11.644;2023-06-14T03:30:21;5.60;;;4.03;;
16075;SDS011;8142;48.242;11.644;2023-06-14T03:32:47;7.10;;;4.40;;
16075;SDS011;8142;48.242;11.644;2023-06-14T03:35:13;7.63;;;4.20;;
16075;SDS011;8142;48.242;11.644;2023-06-14T03:37:43;6.17;;;4.30;;
16075;SDS011;8142;48.242;11.644;2023-06-14T03:40:10;6.13;;;4.30;;
16075;SDS011;8142;48.242;11.644;2023-06-14T03:42:37;4.87;;;4.27;;
16075;SDS011;8142;48.242;11.644;2023-06-14T03:45:03;5.63;;;4.43;;
16075;SDS011;8142;48.242;11.644;2023-06-14T03:47:29;7.47;;;4.57;;
16075;SDS011;8142;48.242;11.644;2023-06-14T03:49:55;6.83;;;4.70;;
16075;SDS011;8142;48.242;11.644;2023-06-14T03:52:21;4.97;;;4.20;;
16075;SDS011;8142;48.242;11.644;2023-06-14T03:54:48;5.13;;;4.53;;
16075;SDS011;8142;48.242;11.644;2023-06-14T03:57:15;6.97;;;4.43;;
16075;SDS011;8142;48.242;11.644;2023-06-14T03:59:40;8.87;;;4.57;;
16075;SDS011;8142;48.242;11.644;2023-06-14T04:02:06;6.43;;;4.27;;
16075;SDS011;8142;48.242;11.644;2023-06-14T04:04:34;8.23;;;4.83;;
16075;SDS011;8142;48.242;11.644;2023-06-14T04:07:01;5.57;;;4.50;;
16075;SDS011;8142;48.242;11.644;2023-06-14T04:09:28;9.77;;;4.83;;
16075;SDS011;8142;48.242;11.644;2023-06-14T04:11:55;6.47;;;4.83;;
16075;SDS011;8142;48.242;11.644;2023-06-14T04:14:21;6.13;;;4.60;;
16075;SDS011;8142;48.242;11.644;2023-06-14T04:16:47;5.60;;;4.67;;
16075;SDS011;8142;48.242;11.644;2023-06-14T04:19:15;5.07;;;4.30;;
16075;SDS011;8142;48.242;11.644;2023-06-14T04:21:41;6.57;;;4.87;;
16075;SDS011;8142;48.242;11.644;2023-06-14T04:24:07;7.07;;;4.50;;
16075;SDS011;8142;48.242;11.644;2023-06-14T04:26:38;7.47;;;4.43;;
16075;SDS011;8142;48.242;11.644;2023-06-14T04:29:10;5.87;;;4.40;;
16075;SDS011;8142;48.242;11.644;2023-06-14T04:31:41;6.37;;;4.73;;
16075;SDS011;8142;48.242;11.644;2023-06-14T04:34:08;8.20;;;4.50;;
16075;SDS011;8142;48.242;11.644;2023-06-14T04:36:34;9.10;;;5.20;;
16075;SDS011;8142;48.242;11.644;2023-06-14T04:39:03;6.80;;;5.03;;
16075;SDS011;8142;48.242;11.644;2023-06-14T04:41:29;6.30;;;5.00;;
16075;SDS011;8142;48.242;11.644;2023-06-14T04:43:57;7.07;;;5.27;;
16075;SDS011;8142;48.242;11.644;2023-06-14T04:46:29;7.73;;;4.73;;
16075;SDS011;8142;48.242;11.644;2023-06-14T04:48:57;9.87;;;5.43;;
16075;SDS011;8142;48.242;11.644;2023-06-14T04:51:27;7.47;;;5.10;;
16075;SDS011;8142;48.242;11.644;2023-06-14T04:53:57;6.80;;;5.07;;
16075;SDS011;8142;48.242;11.644;2023-06-14T04:56:24;7.63;;;5.20;;
16075;SDS011;8142;48.242;11.644;2023-06-14T04:58:51;5.63;;;4.87;;
16075;SDS011;8142;48.242;11.644;2023-06-14T05:01:18;6.70;;;5.20;;
16075;SDS011;8142;48.242;11.644;2023-06-14T05:03:46;8.20;;;5.40;;
16075;SDS011;8142;48.242;11.644;2023-06-14T05:06:14;10.63;;;5.90;;
16075;SDS011;8142;48.242;11.644;2023-06-14T05:08:42;7.07;;;5.07;;
16075;SDS011;8142;48.242;11.644;2023-06-14T05:11:08;8.23;;;5.23;;
16075;SDS011;8142;48.242;11.644;2023-06-14T05:13:34;6.67;;;4.80;;
16075;SDS011;8142;48.242;11.644;2023-06-14T05:16:00;7.47;;;4.90;;
16075;SDS011;8142;48.242;11.644;2023-06-14T05:18:26;6.13;;;4.70;;
16075;SDS011;8142;48.242;11.644;2023-06-14T05:20:52;8.33;;;4.70;;
16075;SDS011;8142;48.242;11.644;2023-06-14T05:23:18;7.97;;;4.57;;
16075;SDS011;8142;48.242;11.644;2023-06-14T05:25:44;8.47;;;5.50;;
16075;SDS011;8142;48.242;11.644;2023-06-14T05:28:10;6.73;;;4.47;;
16075;SDS011;8142;48.242;11.644;2023-06-14T05:30:40;6.43;;;4.57;;
16075;SDS011;8142;48.242;11.644;2023-06-14T05:33:05;6.60;;;4.63;;
16075;SDS011;8142;48.242;11.644;2023-06-14T05:35:31;7.73;;;4.60;;
16075;SDS011;8142;48.242;11.644;2023-06-14T05:37:57;6.10;;;4.00;;
16075;SDS011;8142;48.242;11.644;2023-06-14T05:40:23;6.33;;;4.27;;
16075;SDS011;8142;48.242;11.644;2023-06-14T05:42:49;6.80;;;4.70;;
16075;SDS011;8142;48.242;11.644;2023-06-14T05:45:15;5.37;;;4.00;;
16075;SDS011;8142;48.242;11.644;2023-06-14T05:47:41;9.47;;;4.47;;
16075;SDS011;8142;48.242;11.644;2023-06-14T05:50:07;5.13;;;4.10;;
16075;SDS011;8142;48.242;11.644;2023-06-14T05:52:34;5.03;;;4.10;;
16075;SDS011;8142;48.242;11.644;2023-06-14T05:55:02;6.47;;;4.37;;
16075;SDS011;8142;48.242;11.644;2023-06-14T05:57:29;6.23;;;3.90;;
16075;SDS011;8142;48.242;11.644;2023-06-14T05:59:55;5.57;;;3.77;;
16075;SDS011;8142;48.242;11.644;2023-06-14T06:02:21;5.60;;;4.20;;
16075;SDS011;8142;48.242;11.644;2023-06-14T06:04:47;5.40;;;4.07;;
16075;SDS011;8142;48.242;11.644;2023-06-14T06:07:13;5.87;;;4.17;;
16075;SDS011;8142;48.242;11.644;2023-06-14T06:09:38;6.93;;;4.07;;
16075;SDS011;8142;48.242;11.644;2023-06-14T06:12:06;5.73;;;3.90;;
16075;SDS011;8142;48.242;11.644;2023-06-14T06:14:32;6.20;;;4.13;;
16075;SDS011;8142;48.242;11.644;2023-06-14T06:16:58;5.70;;;3.90;;
16075;SDS011;8142;48.242;11.644;2023-06-14T06:19:24;7.03;;;4.00;;
16075;SDS011;8142;48.242;11.644;2023-06-14T06:21:50;6.70;;;3.80;;
16075;SDS011;8142;48.242;11.644;2023-06-14T06:24:16;5.93;;;4.07;;
16075;SDS011;8142;48.242;11.644;2023-06-14T06:26:42;6.07;;;3.73;;
16075;SDS011;8142;48.242;11.644;2023-06-14T06:29:08;5.83;;;4.10;;
16075;SDS011;8142;48.242;11.644;2023-06-14T06:31:34;5.03;;;4.03;;
16075;SDS011;8142;48.242;11.644;2023-06-14T06:33:59;5.40;;;3.80;;
16075;SDS011;8142;48.242;11.644;2023-06-14T06:36:25;5.83;;;3.80;;
16075;SDS011;8142;48.242;11.644;2023-06-14T06:38:51;7.30;;;4.13;;
16075;SDS011;8142;48.242;11.644;2023-06-14T06:41:18;6.70;;;3.70;;
16075;SDS011;8142;48.242;11.644;2023-06-14T06:43:44;6.77;;;3.93;;
16075;SDS011;8142;48.242;11.644;2023-06-14T06:46:10;6.33;;;3.83;;
16075;SDS011;8142;48.242;11.644;2023-06-14T06:48:36;7.47;;;3.90;;
16075;SDS011;8142;48.242;11.644;2023-06-14T06:51:02;4.53;;;3.60;;
16075;SDS011;8142;48.242;11.644;2023-06-14T06:53:28;5.83;;;3.93;;
16075;SDS011;8142;48.242;11.644;2023-06-14T06:55:53;5.63;;;3.80;;
16075;SDS011;8142;48.242;11.644;2023-06-14T06:58:20;6.17;;;3.83;;
16075;SDS011;8142;48.242;11.644;2023-06-14T07:00:47;5.90;;;3.43;;
16075;SDS011;8142;48.242;11.644;2023-06-14T07:03:13;6.43;;;3.27;;
16075;SDS011;8142;48.242;11.644;2023-06-14T07:05:39;6.90;;;3.70;;
16075;SDS011;8142;48.242;11.644;2023-06-14T07:08:05;4.80;;;3.67;;
16075;SDS011;8142;48.242;11.644;2023-06-14T07:10:30;5.03;;;3.40;;
16075;SDS011;8142;48.242;11.644;2023-06-14T07:12:56;6.57;;;3.47;;
16075;SDS011;8142;48.242;11.644;2023-06-14T07:15:22;5.30;;;3.23;;
16075;SDS011;8142;48.242;11.644;2023-06-14T07:17:48;7.93;;;3.60;;
16075;SDS011;8142;48.242;11.644;2023-06-14T07:20:14;5.30;;;3.37;;
16075;SDS011;8142;48.242;11.644;2023-06-14T07:22:41;5.73;;;3.53;;
16075;SDS011;8142;48.242;11.644;2023-06-14T07:25:11;6.20;;;3.60;;
16075;SDS011;8142;48.242;11.644;2023-06-14T07:27:42;4.83;;;3.07;;
16075;SDS011;8142;48.242;11.644;2023-06-14T07:30:09;6.20;;;3.30;;
16075;SDS011;8142;48.242;11.644;2023-06-14T07:32:36;5.50;;;3.23;;
16075;SDS011;8142;48.242;11.644;2023-06-14T07:35:02;7.17;;;3.30;;
16075;SDS011;8142;48.242;11.644;2023-06-14T07:37:28;3.93;;;3.33;;
16075;SDS011;8142;48.242;11.644;2023-06-14T07:39:54;3.73;;;2.97;;
16075;SDS011;8142;48.242;11.644;2023-06-14T07:42:20;5.33;;;3.07;;
16075;SDS011;8142;48.242;11.644;2023-06-14T07:44:46;5.27;;;3.00;;
16075;SDS011;8142;48.242;11.644;2023-06-14T07:47:12;4.17;;;2.97;;
16075;SDS011;8142;48.242;11.644;2023-06-14T07:49:38;7.80;;;3.30;;
16075;SDS011;8142;48.242;11.644;2023-06-14T07:52:04;6.37;;;3.10;;
16075;SDS011;8142;48.242;11.644;2023-06-14T07:54:30;4.00;;;2.80;;
16075;SDS011;8142;48.242;11.644;2023-06-14T07:56:57;7.90;;;3.17;;
16075;SDS011;8142;48.242;11.644;2023-06-14T07:59:25;6.67;;;3.20;;
16075;SDS011;8142;48.242;11.644;2023-06-14T08:01:52;3.70;;;2.80;;
16075;SDS011;8142;48.242;11.644;2023-06-14T08:04:17;5.07;;;2.97;;
16075;SDS011;8142;48.242;11.644;2023-06-14T08:06:43;4.63;;;2.90;;
16075;SDS011;8142;48.242;11.644;2023-06-14T08:09:10;3.83;;;2.80;;
16075;SDS011;8142;48.242;11.644;2023-06-14T08:11:37;3.57;;;3.03;;
16075;SDS011;8142;48.242;11.644;2023-06-14T08:14:03;3.27;;;2.93;;
16075;SDS011;8142;48.242;11.644;2023-06-14T08:16:29;3.17;;;2.60;;
16075;SDS011;8142;48.242;11.644;2023-06-14T08:18:55;4.93;;;2.90;;
16075;SDS011;8142;48.242;11.644;2023-06-14T08:21:21;4.10;;;2.80;;
16075;SDS011;8142;48.242;11.644;2023-06-14T08:23:47;3.23;;;2.90;;
16075;SDS011;8142;48.242;11.644;2023-06-14T08:26:13;3.20;;;2.90;;
16075;SDS011;8142;48.242;11.644;2023-06-14T08:28:39;5.13;;;3.30;;
16075;SDS011;8142;48.242;11.644;2023-06-14T08:31:05;4.60;;;2.80;;
16075;SDS011;8142;48.242;11.644;2023-06-14T08:33:31;6.83;;;2.97;;
16075;SDS011;8142;48.242;11.644;2023-06-14T08:35:58;5.63;;;3.17;;
16075;SDS011;8142;48.242;11.644;2023-06-14T08:38:24;4.37;;;2.93;;
16075;SDS011;8142;48.242;11.644;2023-06-14T08:40:50;4.87;;;3.10;;
16075;SDS011;8142;48.242;11.644;2023-06-14T08:43:17;4.27;;;3.07;;
16075;SDS011;8142;48.242;11.644;2023-06-14T08:45:44;5.93;;;3.03;;
16075;SDS011;8142;48.242;11.644;2023-06-14T08:48:13;6.40;;;3.00;;
16075;SDS011;8142;48.242;11.644;2023-06-14T08:50:42;3.13;;;2.80;;
16075;SDS011;8142;48.242;11.644;2023-06-14T08:53:11;3.43;;;2.90;;
16075;SDS011;8142;48.242;11.644;2023-06-14T08:55:44;3.43;;;2.90;;
16075;SDS011;8142;48.242;11.644;2023-06-14T08:58:10;3.23;;;2.93;;
16075;SDS011;8142;48.242;11.644;2023-06-14T09:00:40;4.47;;;3.10;;
16075;SDS011;8142;48.242;11.644;2023-06-14T09:03:08;4.63;;;2.80;;
16075;SDS011;8142;48.242;11.644;2023-06-14T09:05:38;3.97;;;3.03;;
16075;SDS011;8142;48.242;11.644;2023-06-14T09:08:05;5.60;;;3.30;;
16075;SDS011;8142;48.242;11.644;2023-06-14T09:10:31;5.53;;;3.30;;
16075;SDS011;8142;48.242;11.644;2023-06-14T09:13:02;4.77;;;3.10;;
16075;SDS011;8142;48.242;11.644;2023-06-14T09:15:30;4.37;;;3.30;;
16075;SDS011;8142;48.242;11.644;2023-06-14T09:17:56;4.17;;;3.03;;
16075;SDS011;8142;48.242;11.644;2023-06-14T09:20:23;3.37;;;3.00;;
16075;SDS011;8142;48.242;11.644;2023-06-14T09:22:50;3.53;;;3.03;;
16075;SDS011;8142;48.242;11.644;2023-06-14T09:25:16;5.20;;;2.80;;
16075;SDS011;8142;48.242;11.644;2023-06-14T09:27:43;4.87;;;3.07;;
16075;SDS011;8142;48.242;11.644;2023-06-14T09:30:12;4.83;;;3.50;;
16075;SDS011;8142;48.242;11.644;2023-06-14T09:32:38;5.20;;;2.70;;
16075;SDS011;8142;48.242;11.644;2023-06-14T09:35:06;6.47;;;2.90;;
16075;SDS011;8142;48.242;11.644;2023-06-14T09:37:32;3.23;;;2.70;;
16075;SDS011;8142;48.242;11.644;2023-06-14T09:39:59;3.93;;;2.67;;
16075;SDS011;8142;48.242;11.644;2023-06-14T09:42:25;3.73;;;2.80;;
16075;SDS011;8142;48.242;11.644;2023-06-14T09:44:53;5.97;;;3.07;;
16075;SDS011;8142;48.242;11.644;2023-06-14T09:47:20;4.73;;;2.80;;
16075;SDS011;8142;48.242;11.644;2023-06-14T09:49:47;4.50;;;2.60;;
16075;SDS011;8142;48.242;11.644;2023-06-14T09:52:17;3.30;;;2.83;;
16075;SDS011;8142;48.242;11.644;2023-06-14T09:54:44;6.70;;;2.90;;
16075;SDS011;8142;48.242;11.644;2023-06-14T09:57:12;5.43;;;2.70;;
16075;SDS011;8142;48.242;11.644;2023-06-14T09:59:43;3.23;;;2.57;;
16075;SDS011;8142;48.242;11.644;2023-06-14T10:02:34;3.73;;;2.60;;
16075;SDS011;8142;48.242;11.644;2023-06-14T10:05:03;7.07;;;3.10;;
16075;SDS011;8142;48.242;11.644;2023-06-14T10:07:37;4.83;;;3.20;;
16075;SDS011;8142;48.242;11.644;2023-06-14T10:10:06;3.37;;;2.87;;
16075;SDS011;8142;48.242;11.644;2023-06-14T10:12:33;4.37;;;2.83;;
16075;SDS011;8142;48.242;11.644;2023-06-14T10:14:59;3.30;;;3.00;;
16075;SDS011;8142;48.242;11.644;2023-06-14T10:19:56;3.60;;;3.10;;
16075;SDS011;8142;48.242;11.644;2023-06-14T10:22:49;4.53;;;2.93;;
16075;SDS011;8142;48.242;11.644;2023-06-14T10:25:28;3.47;;;3.00;;
16075;SDS011;8142;48.242;11.644;2023-06-14T10:33:33;4.73;;;3.13;;
16075;SDS011;8142;48.242;11.644;2023-06-14T10:38:57;4.43;;;3.33;;
16075;SDS011;8142;48.242;11.644;2023-06-14T10:41:29;3.67;;;3.10;;
16075;SDS011;8142;48.242;11.644;2023-06-14T10:46:41;5.13;;;3.23;;
16075;SDS011;8142;48.242;11.644;2023-06-14T10:49:11;3.70;;;2.97;;
16075;SDS011;8142;48.242;11.644;2023-06-14T10:51:38;4.37;;;2.73;;
16075;SDS011;8142;48.242;11.644;2023-06-14T10:54:13;4.37;;;3.00;;
16075;SDS011;8142;48.242;11.644;2023-06-14T10:56:50;5.50;;;3.27;;
16075;SDS011;8142;48.242;11.644;2023-06-14T10:59:17;3.73;;;2.90;;
16075;SDS011;8142;48.242;11.644;2023-06-14T11:02:13;5.03;;;3.00;;
16075;SDS011;8142;48.242;11.644;2023-06-14T11:04:52;4.63;;;3.03;;
16075;SDS011;8142;48.242;11.644;2023-06-14T11:10:36;4.77;;;3.50;;
16075;SDS011;8142;48.242;11.644;2023-06-14T11:13:07;5.37;;;3.03;;
16075;SDS011;8142;48.242;11.644;2023-06-14T11:15:36;4.17;;;2.90;;
16075;SDS011;8142;48.242;11.644;2023-06-14T11:18:08;3.27;;;2.97;;
16075;SDS011;8142;48.242;11.644;2023-06-14T11:20:37;3.73;;;3.27;;
16075;SDS011;8142;48.242;11.644;2023-06-14T11:23:03;4.87;;;3.23;;
16075;SDS011;8142;48.242;11.644;2023-06-14T11:25:30;3.60;;;3.30;;
16075;SDS011;8142;48.242;11.644;2023-06-14T11:27:56;5.50;;;3.47;;
16075;SDS011;8142;48.242;11.644;2023-06-14T11:30:23;4.53;;;2.90;;
16075;SDS011;8142;48.242;11.644;2023-06-14T11:32:51;3.80;;;2.93;;
16075;SDS011;8142;48.242;11.644;2023-06-14T11:35:19;3.77;;;3.20;;
16075;SDS011;8142;48.242;11.644;2023-06-14T11:37:48;5.27;;;3.40;;
16075;SDS011;8142;48.242;11.644;2023-06-14T11:40:18;3.80;;;3.30;;
16075;SDS011;8142;48.242;11.644;2023-06-14T11:42:43;5.97;;;3.03;;
16075;SDS011;8142;48.242;11.644;2023-06-14T11:45:10;3.77;;;3.10;;
16075;SDS011;8142;48.242;11.644;2023-06-14T11:47:40;4.33;;;3.27;;
16075;SDS011;8142;48.242;11.644;2023-06-14T11:50:06;5.87;;;3.00;;
16075;SDS011;8142;48.242;11.644;2023-06-14T11:52:36;4.07;;;3.30;;
16075;SDS011;8142;48.242;11.644;2023-06-14T11:55:03;3.73;;;3.10;;
16075;SDS011;8142;48.242;11.644;2023-06-14T11:57:33;4.53;;;3.23;;
16075;SDS011;8142;48.242;11.644;2023-06-14T12:00:02;4.60;;;3.23;;
16075;SDS011;8142;48.242;11.644;2023-06-14T12:02:33;4.67;;;3.03;;
16075;SDS011;8142;48.242;11.644;2023-06-14T12:05:03;6.30;;;3.30;;
16075;SDS011;8142;48.242;11.644;2023-06-14T12:07:31;5.70;;;3.50;;
16075;SDS011;8142;48.242;11.644;2023-06-14T12:12:26;5.13;;;3.50;;
16075;SDS011;8142;48.242;11.644;2023-06-14T12:14:52;5.23;;;3.23;;
16075;SDS011;8142;48.242;11.644;2023-06-14T12:17:20;4.13;;;3.07;;
16075;SDS011;8142;48.242;11.644;2023-06-14T12:19:46;6.10;;;3.30;;
16075;SDS011;8142;48.242;11.644;2023-06-14T12:22:13;6.03;;;3.57;;
16075;SDS011;8142;48.242;11.644;2023-06-14T12:24:42;6.37;;;3.07;;
16075;SDS011;8142;48.242;11.644;2023-06-14T12:27:08;3.60;;;3.10;;
16075;SDS011;8142;48.242;11.644;2023-06-14T12:29:37;5.13;;;3.30;;
16075;SDS011;8142;48.242;11.644;2023-06-14T12:32:03;5.47;;;3.10;;
16075;SDS011;8142;48.242;11.644;2023-06-14T12:34:29;3.30;;;2.90;;
16075;SDS011;8142;48.242;11.644;2023-06-14T12:36:56;4.67;;;2.97;;
16075;SDS011;8142;48.242;11.644;2023-06-14T12:39:22;5.03;;;3.10;;
16075;SDS011;8142;48.242;11.644;2023-06-14T12:41:49;3.27;;;2.97;;
16075;SDS011;8142;48.242;11.644;2023-06-14T12:44:15;4.23;;;3.40;;
16075;SDS011;8142;48.242;11.644;2023-06-14T12:46:41;4.67;;;3.27;;
16075;SDS011;8142;48.242;11.644;2023-06-14T12:49:11;5.27;;;3.07;;
16075;SDS011;8142;48.242;11.644;2023-06-14T12:51:38;3.33;;;3.03;;
16075;SDS011;8142;48.242;11.644;2023-06-14T12:54:06;6.10;;;3.70;;
16075;SDS011;8142;48.242;11.644;2023-06-14T12:56:32;5.53;;;2.93;;
16075;SDS011;8142;48.242;11.644;2023-06-14T12:58:58;3.83;;;3.30;;
16075;SDS011;8142;48.242;11.644;2023-06-14T13:01:24;3.10;;;2.80;;
16075;SDS011;8142;48.242;11.644;2023-06-14T13:03:50;5.03;;;3.00;;
16075;SDS011;8142;48.242;11.644;2023-06-14T13:06:22;4.47;;;3.13;;
16075;SDS011;8142;48.242;11.644;2023-06-14T13:08:48;4.47;;;3.40;;
16075;SDS011;8142;48.242;11.644;2023-06-14T13:11:15;3.87;;;3.17;;
16075;SDS011;8142;48.242;11.644;2023-06-14T13:13:41;4.50;;;2.93;;
16075;SDS011;8142;48.242;11.644;2023-06-14T13:16:07;6.33;;;3.00;;
16075;SDS011;8142;48.242;11.644;2023-06-14T13:18:33;6.60;;;3.20;;
16075;SDS011;8142;48.242;11.644;2023-06-14T13:20:59;5.13;;;3.03;;
16075;SDS011;8142;48.242;11.644;2023-06-14T13:23:26;5.00;;;3.10;;
16075;SDS011;8142;48.242;11.644;2023-06-14T13:25:52;3.60;;;3.00;;
16075;SDS011;8142;48.242;11.644;2023-06-14T13:28:18;5.33;;;3.77;;
16075;SDS011;8142;48.242;11.644;2023-06-14T13:30:44;5.50;;;3.47;;
16075;SDS011;8142;48.242;11.644;2023-06-14T13:33:10;4.77;;;3.07;;
16075;SDS011;8142;48.242;11.644;2023-06-14T13:35:36;5.27;;;3.03;;
16075;SDS011;8142;48.242;11.644;2023-06-14T13:38:02;5.37;;;3.13;;
16075;SDS011;8142;48.242;11.644;2023-06-14T13:40:27;5.13;;;3.00;;
16075;SDS011;8142;48.242;11.644;2023-06-14T13:42:53;5.53;;;3.30;;
16075;SDS011;8142;48.242;11.644;2023-06-14T13:45:19;4.43;;;3.30;;
16075;SDS011;8142;48.242;11.644;2023-06-14T13:47:45;7.20;;;3.40;;
16075;SDS011;8142;48.242;11.644;2023-06-14T13:50:13;3.77;;;3.20;;
16075;SDS011;8142;48.242;11.644;2023-06-14T13:52:40;4.47;;;3.20;;
16075;SDS011;8142;48.242;11.644;2023-06-14T13:55:06;5.50;;;2.97;;
16075;SDS011;8142;48.242;11.644;2023-06-14T13:57:32;4.10;;;2.87;;
16075;SDS011;8142;48.242;11.644;2023-06-14T13:59:58;3.93;;;3.07;;
16075;SDS011;8142;48.242;11.644;2023-06-14T14:02:27;3.43;;;2.80;;
16075;SDS011;8142;48.242;11.644;2023-06-14T14:04:54;3.83;;;3.07;;
16075;SDS011;8142;48.242;11.644;2023-06-14T14:07:21;7.07;;;4.00;;
16075;SDS011;8142;48.242;11.644;2023-06-14T14:09:47;3.40;;;3.10;;
16075;SDS011;8142;48.242;11.644;2023-06-14T14:12:13;3.87;;;3.40;;
16075;SDS011;8142;48.242;11.644;2023-06-14T14:14:42;5.00;;;3.00;;
16075;SDS011;8142;48.242;11.644;2023-06-14T14:17:08;4.87;;;3.27;;
16075;SDS011;8142;48.242;11.644;2023-06-14T14:19:34;5.23;;;3.13;;
16075;SDS011;8142;48.242;11.644;2023-06-14T14:22:00;5.97;;;3.30;;
16075;SDS011;8142;48.242;11.644;2023-06-14T14:24:27;3.80;;;3.30;;
16075;SDS011;8142;48.242;11.644;2023-06-14T14:26:53;3.63;;;2.90;;
16075;SDS011;8142;48.242;11.644;2023-06-14T14:29:19;4.97;;;3.20;;
16075;SDS011;8142;48.242;11.644;2023-06-14T14:31:45;4.80;;;3.10;;
16075;SDS011;8142;48.242;11.644;2023-06-14T14:34:11;4.33;;;3.10;;
16075;SDS011;8142;48.242;11.644;2023-06-14T14:36:37;3.30;;;3.00;;
16075;SDS011;8142;48.242;11.644;2023-06-14T14:39:08;5.37;;;3.00;;
16075;SDS011;8142;48.242;11.644;2023-06-14T14:41:34;6.83;;;3.37;;
16075;SDS011;8142;48.242;11.644;2023-06-14T14:44:00;5.63;;;3.27;;
16075;SDS011;8142;48.242;11.644;2023-06-14T14:46:27;6.30;;;3.10;;
16075;SDS011;8142;48.242;11.644;2023-06-14T14:48:53;4.97;;;2.97;;
16075;SDS011;8142;48.242;11.644;2023-06-14T14:51:20;3.50;;;3.17;;
16075;SDS011;8142;48.242;11.644;2023-06-14T14:53:46;5.20;;;2.97;;
16075;SDS011;8142;48.242;11.644;2023-06-14T14:56:12;5.23;;;3.20;;
16075;SDS011;8142;48.242;11.644;2023-06-14T14:58:38;4.63;;;3.00;;
16075;SDS011;8142;48.242;11.644;2023-06-14T15:01:04;3.50;;;3.00;;
16075;SDS011;8142;48.242;11.644;2023-06-14T15:03:31;3.30;;;2.90;;
16075;SDS011;8142;48.242;11.644;2023-06-14T15:05:57;4.90;;;3.10;;
16075;SDS011;8142;48.242;11.644;2023-06-14T15:08:23;3.83;;;3.00;;
16075;SDS011;8142;48.242;11.644;2023-06-14T15:10:49;3.70;;;3.03;;
16075;SDS011;8142;48.242;11.644;2023-06-14T15:13:15;4.23;;;3.30;;